createdAt,value
2023-05-06T00:00:08.757Z,96897.50
2023-05-06T00:01:10.632Z,96896.47
2023-05-06T00:02:12.554Z,96906.75
2023-05-06T00:03:14.536Z,96901.25
2023-05-06T00:04:16.447Z,96890.38
2023-05-06T00:05:18.783Z,96892.78
2023-05-06T00:06:20.664Z,96891.75
2023-05-06T00:07:22.638Z,96885.44
2023-05-06T00:08:24.544Z,96886.22
2023-05-06T00:09:26.397Z,96888.06
2023-05-06T00:10:28.238Z,96890.72
2023-05-06T00:11:30.097Z,96892.78
2023-05-06T00:12:31.899Z,96890.38
2023-05-06T00:13:33.976Z,96896.22
2023-05-06T00:14:35.816Z,96891.25
2023-05-06T00:15:37.842Z,96885.44
2023-05-06T00:16:39.776Z,96894.41
2023-05-06T00:17:41.731Z,96890.72
2023-05-06T00:18:43.701Z,96883.91
2023-05-06T00:19:45.559Z,96866.28
2023-05-06T00:20:47.579Z,96883.69
2023-05-06T00:21:49.688Z,96869.47
2023-05-06T00:22:51.620Z,96868.44
2023-05-06T00:23:53.596Z,96869.78
2023-05-06T00:24:55.560Z,96874.59
2023-05-06T00:25:57.528Z,96870.91
2023-05-06T00:26:59.325Z,96875.94
2023-05-06T00:28:01.211Z,96878.34
2023-05-06T00:29:03.174Z,96874.41
2023-05-06T00:30:05.445Z,96875.19
2023-05-06T00:31:07.333Z,96877.59
2023-05-06T00:32:09.223Z,96867.06
2023-05-06T00:33:11.301Z,96876.00
2023-05-06T00:34:13.265Z,96874.09
2023-05-06T00:35:15.253Z,96879.84
2023-05-06T00:36:17.104Z,96870.34
2023-05-06T00:37:18.990Z,96866.69
2023-05-06T00:38:20.854Z,96861.97
2023-05-06T00:39:22.944Z,96860.69
2023-05-06T00:40:24.862Z,96867.78
2023-05-06T00:41:30.689Z,96862.25
2023-05-06T00:42:33.172Z,96861.22
2023-05-06T00:43:35.027Z,96859.88
2023-05-06T00:44:36.876Z,96861.97
2023-05-06T00:45:38.904Z,96857.97
2023-05-06T00:46:40.840Z,96862.13
2023-05-06T00:47:43.504Z,96860.31
2023-05-06T00:48:45.837Z,96857.41
2023-05-06T00:49:48.322Z,96859.25
2023-05-06T00:50:50.183Z,96856.59
2023-05-06T00:51:52.666Z,96849.75
2023-05-06T00:52:55.064Z,96852.94
2023-05-06T00:53:57.002Z,96854.78
2023-05-06T00:54:58.966Z,96849.75
2023-05-06T00:56:00.957Z,96852.41
2023-05-06T00:57:03.118Z,96850.78
2023-05-06T00:58:05.000Z,96855.50
2023-05-06T00:59:07.263Z,96852.06
2023-05-06T01:00:09.275Z,96848.66
2023-05-06T01:01:11.824Z,96847.03
2023-05-06T01:02:13.685Z,96845.19
2023-05-06T01:03:16.336Z,96842.81
2023-05-06T01:04:18.910Z,96843.28
2023-05-06T01:05:26.512Z,96841.16
2023-05-06T01:06:47.101Z,96841.16
2023-05-06T01:07:51.939Z,96846.16
2023-05-06T01:08:53.723Z,96838.25
2023-05-06T01:10:18.998Z,96844.34
2023-05-06T01:11:36.186Z,96853.03
2023-05-06T01:12:44.562Z,96845.13
2023-05-06T01:13:54.519Z,96858.53
2023-05-06T01:15:01.556Z,96863.47
2023-05-06T01:16:05.166Z,96861.91
2023-05-06T01:17:09.722Z,96864.31
2023-05-06T01:18:16.278Z,96861.66
2023-05-06T01:19:27.618Z,96861.66
2023-05-06T01:20:31.379Z,96852.16
2023-05-06T01:21:35.094Z,96854.78
2023-05-06T01:22:37.806Z,96850.03
2023-05-06T01:23:56.871Z,96858.78
2023-05-06T01:24:58.705Z,96861.81
2023-05-06T01:26:00.558Z,96857.34
2023-05-06T01:27:02.339Z,96854.16
2023-05-06T01:28:04.300Z,96849.59
2023-05-06T01:29:06.641Z,96848.81
2023-05-06T01:30:08.779Z,96858.78
2023-05-06T01:31:13.576Z,96856.38
2023-05-06T01:32:22.159Z,96854.78
2023-05-06T01:33:27.238Z,96857.97
2023-05-06T01:34:35.771Z,96855.34
2023-05-06T01:35:43.330Z,96858.47
2023-05-06T01:36:48.333Z,96851.59
2023-05-06T01:38:25.705Z,96855.72
2023-05-06T01:39:30.588Z,96856.78
2023-05-06T01:40:33.495Z,96861.00
2023-05-06T01:41:36.519Z,96858.91
2023-05-06T01:42:40.227Z,96855.81
2023-05-06T01:43:43.466Z,96855.81
2023-05-06T01:44:45.613Z,96855.81
2023-05-06T01:45:53.532Z,96860.03
2023-05-06T01:46:56.481Z,96852.16
2023-05-06T01:47:59.572Z,96859.97
2023-05-06T01:49:06.210Z,96859.88
2023-05-06T01:50:08.517Z,96861.38
2023-05-06T01:51:10.358Z,96862.19
2023-05-06T01:52:12.237Z,96865.13
2023-05-06T01:53:14.090Z,96868.34
2023-05-06T01:54:16.137Z,96867.06
2023-05-06T01:55:17.933Z,96867.06
2023-05-06T01:56:19.716Z,96858.13
2023-05-06T01:57:21.703Z,96853.66
2023-05-06T01:58:23.583Z,96855.72
2023-05-06T01:59:25.550Z,96860.09
2023-05-06T02:00:27.496Z,96852.13
2023-05-06T02:01:29.354Z,96851.47
2023-05-06T02:02:31.369Z,96846.13
2023-05-06T02:03:33.287Z,96860.66
2023-05-06T02:04:35.306Z,96853.09
2023-05-06T02:05:37.569Z,96844.41
2023-05-06T02:06:39.483Z,96833.53
2023-05-06T02:07:41.358Z,96846.47
2023-05-06T02:08:43.397Z,96839.03
2023-05-06T02:09:45.313Z,96839.59
2023-05-06T02:10:47.193Z,96844.06
2023-05-06T02:11:49.061Z,96841.44
2023-05-06T02:12:51.468Z,96840.38
2023-05-06T02:13:53.309Z,96842.78
2023-05-06T02:14:55.171Z,96843.84
2023-05-06T02:15:57.222Z,96839.59
2023-05-06T02:17:03.912Z,96835.84
2023-05-06T02:18:05.809Z,96838.69
2023-05-06T02:19:07.683Z,96845.09
2023-05-06T02:20:12.399Z,96846.56
2023-05-06T02:21:14.427Z,96850.19
2023-05-06T02:22:16.383Z,96843.03
2023-05-06T02:23:18.312Z,96844.97
2023-05-06T02:24:20.449Z,96840.31
2023-05-06T02:25:22.882Z,96841.31
2023-05-06T02:26:24.915Z,96839.25
2023-05-06T02:27:26.799Z,96836.84
2023-05-06T02:28:28.616Z,96836.41
2023-05-06T02:29:30.429Z,96844.06
2023-05-06T02:30:32.671Z,96846.81
2023-05-06T02:31:34.669Z,96841.31
2023-05-06T02:32:36.615Z,96836.06
2023-05-06T02:33:38.439Z,96834.56
2023-05-06T02:34:40.423Z,96838.66
2023-05-06T02:35:42.325Z,96844.28
2023-05-06T02:36:44.261Z,96840.03
2023-05-06T02:37:46.101Z,96843.69
2023-05-06T02:38:47.949Z,96840.03
2023-05-06T02:39:49.827Z,96833.50
2023-05-06T02:40:51.760Z,96838.75
2023-05-06T02:41:53.605Z,96831.91
2023-05-06T02:42:55.534Z,96840.13
2023-05-06T02:43:57.419Z,96835.69
2023-05-06T02:44:59.286Z,96835.69
2023-05-06T02:46:01.219Z,96832.25
2023-05-06T02:47:03.392Z,96833.03
2023-05-06T02:48:05.398Z,96835.19
2023-05-06T02:49:07.281Z,96833.94
2023-05-06T02:50:09.227Z,96834.97
2023-05-06T02:51:11.104Z,96823.88
2023-05-06T02:52:13.075Z,96833.38
2023-05-06T02:53:15.005Z,96837.25
2023-05-06T02:54:16.790Z,96830.66
2023-05-06T02:55:19.110Z,96839.09
2023-05-06T02:56:20.899Z,96837.59
2023-05-06T02:57:22.860Z,96836.00
2023-05-06T02:58:24.908Z,96833.38
2023-05-06T02:59:26.836Z,96837.81
2023-05-06T03:00:28.616Z,96837.03
2023-05-06T03:01:30.530Z,96837.03
2023-05-06T03:02:32.443Z,96836.00
2023-05-06T03:03:34.235Z,96835.44
2023-05-06T03:04:36.225Z,96834.88
2023-05-06T03:05:38.143Z,96829.06
2023-05-06T03:06:40.091Z,96833.50
2023-05-06T03:07:42.139Z,96837.19
2023-05-06T03:08:43.983Z,96831.56
2023-05-06T03:09:45.841Z,96834.13
2023-05-06T03:10:47.721Z,96830.09
2023-05-06T03:11:49.768Z,96823.25
2023-05-06T03:12:51.721Z,96830.81
2023-05-06T03:13:53.640Z,96830.25
2023-05-06T03:14:55.572Z,96828.63
2023-05-06T03:15:57.506Z,96827.28
2023-05-06T03:16:59.501Z,96824.66
2023-05-06T03:18:01.673Z,96831.41
2023-05-06T03:19:06.968Z,96825.00
2023-05-06T03:20:09.274Z,96827.06
2023-05-06T03:21:12.446Z,96827.28
2023-05-06T03:22:14.903Z,96826.28
2023-05-06T03:23:16.849Z,96816.78
2023-05-06T03:24:18.648Z,96823.66
2023-05-06T03:25:20.733Z,96825.22
2023-05-06T03:26:22.694Z,96828.00
2023-05-06T03:27:24.596Z,96819.31
2023-05-06T03:28:26.558Z,96825.13
2023-05-06T03:29:28.375Z,96830.41
2023-05-06T03:30:30.261Z,96829.72
2023-05-06T03:31:32.423Z,96824.13
2023-05-06T03:32:34.580Z,96823.53
2023-05-06T03:33:36.858Z,96824.81
2023-05-06T03:34:38.682Z,96826.28
2023-05-06T03:35:40.611Z,96830.31
2023-05-06T03:36:42.451Z,96822.66
2023-05-06T03:37:44.350Z,96839.19
2023-05-06T03:38:46.223Z,96828.69
2023-05-06T03:39:48.114Z,96831.91
2023-05-06T03:40:50.907Z,96835.09
2023-05-06T03:41:52.782Z,96822.53
2023-05-06T03:42:54.729Z,96827.56
2023-05-06T03:43:56.537Z,96835.66
2023-05-06T03:44:58.506Z,96831.91
2023-05-06T03:46:00.439Z,96835.56
2023-05-06T03:47:02.281Z,96833.38
2023-05-06T03:48:04.193Z,96829.75
2023-05-06T03:49:06.185Z,96839.28
2023-05-06T03:50:08.190Z,96832.13
2023-05-06T03:51:10.134Z,96839.84
2023-05-06T03:52:12.098Z,96831.75
2023-05-06T03:53:13.929Z,96831.53
2023-05-06T03:54:15.888Z,96834.16
2023-05-06T03:55:17.830Z,96837.81
2023-05-06T03:56:22.239Z,96834.16
2023-05-06T03:57:24.084Z,96848.66
2023-05-06T03:58:25.859Z,96841.78
2023-05-06T03:59:27.707Z,96841.22
2023-05-06T04:00:29.648Z,96845.47
2023-05-06T04:01:31.553Z,96840.00
2023-05-06T04:02:35.321Z,96836.53
2023-05-06T04:03:37.380Z,96838.84
2023-05-06T04:04:39.269Z,96843.41
2023-05-06T04:05:41.055Z,96844.66
2023-05-06T04:06:43.458Z,96847.50
2023-05-06T04:07:45.323Z,96847.28
2023-05-06T04:08:47.129Z,96848.88
2023-05-06T04:09:49.016Z,96852.28
2023-05-06T04:10:50.836Z,96840.78
2023-05-06T04:11:52.771Z,96853.44
2023-05-06T04:12:54.673Z,96850.47
2023-05-06T04:13:56.533Z,96847.72
2023-05-06T04:14:58.364Z,96848.28
2023-05-06T04:16:00.541Z,96855.94
2023-05-06T04:17:02.438Z,96845.66
2023-05-06T04:18:05.180Z,96852.19
2023-05-06T04:19:07.357Z,96851.03
2023-05-06T04:20:11.624Z,96849.41
2023-05-06T04:21:13.916Z,96850.25
2023-05-06T04:22:15.897Z,96851.81
2023-05-06T04:23:17.726Z,96850.00
2023-05-06T04:24:20.178Z,96859.47
2023-05-06T04:25:22.688Z,96859.59
2023-05-06T04:26:24.618Z,96864.03
2023-05-06T04:27:28.379Z,96860.38
2023-05-06T04:28:30.256Z,96856.72
2023-05-06T04:29:32.142Z,96859.22
2023-05-06T04:30:34.641Z,96868.13
2023-05-06T04:31:37.394Z,96864.47
2023-05-06T04:32:39.473Z,96866.31
2023-05-06T04:33:41.811Z,96872.34
2023-05-06T04:34:43.859Z,96873.84
2023-05-06T04:35:55.404Z,96874.16
2023-05-06T04:36:58.459Z,96880.06
2023-05-06T04:38:00.479Z,96881.66
2023-05-06T04:39:03.386Z,96873.59
2023-05-06T04:40:06.214Z,96877.34
2023-05-06T04:41:08.477Z,96875.31
2023-05-06T04:42:10.265Z,96878.28
2023-05-06T04:43:13.212Z,96878.16
2023-05-06T04:44:15.075Z,96882.03
2023-05-06T04:45:17.454Z,96876.41
2023-05-06T04:46:19.449Z,96876.97
2023-05-06T04:47:21.358Z,96880.38
2023-05-06T04:48:23.503Z,96881.78
2023-05-06T04:49:25.503Z,96884.50
2023-05-06T04:50:27.411Z,96874.59
2023-05-06T04:51:29.199Z,96882.56
2023-05-06T04:52:30.971Z,96879.59
2023-05-06T04:53:32.916Z,96880.38
2023-05-06T04:54:34.754Z,96882.22
2023-05-06T04:55:36.768Z,96880.69
2023-05-06T04:56:38.713Z,96878.31
2023-05-06T04:57:40.586Z,96883.09
2023-05-06T04:58:42.539Z,96885.03
2023-05-06T04:59:44.396Z,96884.41
2023-05-06T05:00:46.271Z,96883.16
2023-05-06T05:01:48.212Z,96885.31
2023-05-06T05:02:50.271Z,96886.13
2023-05-06T05:03:52.307Z,96884.06
2023-05-06T05:04:54.211Z,96883.63
2023-05-06T05:05:56.218Z,96890.00
2023-05-06T05:06:58.843Z,96887.38
2023-05-06T05:08:00.758Z,96884.75
2023-05-06T05:09:02.648Z,96886.16
2023-05-06T05:10:04.781Z,96886.28
2023-05-06T05:11:06.855Z,96887.06
2023-05-06T05:12:08.737Z,96885.59
2023-05-06T05:13:10.718Z,96890.03
2023-05-06T05:14:12.620Z,96890.50
2023-05-06T05:15:14.921Z,96889.13
2023-05-06T05:16:16.874Z,96890.72
2023-05-06T05:17:18.769Z,96897.13
2023-05-06T05:18:20.610Z,96896.66
2023-05-06T05:19:22.509Z,96900.31
2023-05-06T05:20:24.477Z,96894.50
2023-05-06T05:21:26.765Z,96895.50
2023-05-06T05:22:28.581Z,96903.38
2023-05-06T05:23:30.524Z,96901.22
2023-05-06T05:24:32.413Z,96894.81
2023-05-06T05:25:34.409Z,96897.88
2023-05-06T05:26:36.275Z,96896.66
2023-05-06T05:27:38.078Z,96897.13
2023-05-06T05:28:39.913Z,96894.16
2023-05-06T05:29:41.791Z,96891.66
2023-05-06T05:30:43.840Z,96893.63
2023-05-06T05:31:45.876Z,96894.63
2023-05-06T05:32:47.938Z,96894.19
2023-05-06T05:33:50.282Z,96887.91
2023-05-06T05:34:52.358Z,96898.88
2023-05-06T05:35:54.192Z,96884.94
2023-05-06T05:36:57.756Z,96887.34
2023-05-06T05:37:59.549Z,96886.69
2023-05-06T05:39:01.396Z,96881.19
2023-05-06T05:40:03.410Z,96885.50
2023-05-06T05:41:05.237Z,96889.16
2023-05-06T05:42:07.191Z,96881.44
2023-05-06T05:43:09.116Z,96887.34
2023-05-06T05:44:11.008Z,96886.47
2023-05-06T05:45:12.922Z,96886.81
2023-05-06T05:46:14.815Z,96883.97
2023-05-06T05:47:16.820Z,96886.03
2023-05-06T05:48:18.718Z,96883.16
2023-05-06T05:49:20.637Z,96879.28
2023-05-06T05:50:22.757Z,96892.09
2023-05-06T05:51:24.599Z,96882.72
2023-05-06T05:52:26.414Z,96885.91
2023-05-06T05:53:28.367Z,96881.22
2023-05-06T05:54:30.220Z,96884.88
2023-05-06T05:55:32.148Z,96882.59
2023-05-06T05:56:34.014Z,96879.28
2023-05-06T05:57:35.923Z,96888.75
2023-05-06T05:58:37.926Z,96883.50
2023-05-06T05:59:39.767Z,96886.22
2023-05-06T06:00:41.709Z,96882.47
2023-05-06T06:01:43.622Z,96880.75
2023-05-06T06:02:45.531Z,96883.25
2023-05-06T06:03:47.722Z,96882.31
2023-05-06T06:04:50.000Z,96881.63
2023-05-06T06:05:53.571Z,96885.97
2023-05-06T06:06:58.324Z,96885.03
2023-05-06T06:08:02.977Z,96879.88
2023-05-06T06:09:05.626Z,96883.63
2023-05-06T06:10:07.772Z,96883.41
2023-05-06T06:11:09.771Z,96884.75
2023-05-06T06:12:11.718Z,96890.00
2023-05-06T06:13:13.875Z,96883.50
2023-05-06T06:14:15.903Z,96890.91
2023-05-06T06:15:17.863Z,96890.47
2023-05-06T06:16:19.798Z,96883.69
2023-05-06T06:17:21.762Z,96879.78
2023-05-06T06:18:23.771Z,96889.25
2023-05-06T06:19:25.584Z,96882.97
2023-05-06T06:20:27.510Z,96880.34
2023-05-06T06:21:29.592Z,96887.69
2023-05-06T06:22:31.474Z,96891.09
2023-05-06T06:23:33.294Z,96886.91
2023-05-06T06:24:35.218Z,96884.56
2023-05-06T06:25:37.211Z,96879.66
2023-05-06T06:26:39.245Z,96888.47
2023-05-06T06:27:41.097Z,96887.75
2023-05-06T06:28:44.928Z,96886.25
2023-05-06T06:29:50.194Z,96890.81
2023-05-06T06:30:52.101Z,96887.13
2023-05-06T06:31:56.328Z,96886.69
2023-05-06T06:32:59.262Z,96884.34
2023-05-06T06:34:01.207Z,96886.53
2023-05-06T06:35:03.098Z,96882.59
2023-05-06T06:36:05.019Z,96884.78
2023-05-06T06:37:08.003Z,96886.94
2023-05-06T06:38:09.857Z,96880.63
2023-05-06T06:39:13.013Z,96889.09
2023-05-06T06:40:15.123Z,96890.22
2023-05-06T06:41:17.016Z,96891.81
2023-05-06T06:42:18.953Z,96889.72
2023-05-06T06:43:20.780Z,96887.44
2023-05-06T06:44:22.646Z,96890.16
2023-05-06T06:45:24.474Z,96881.53
2023-05-06T06:46:26.325Z,96885.50
2023-05-06T06:47:28.247Z,96886.06
2023-05-06T06:48:30.071Z,96888.25
2023-05-06T06:49:32.194Z,96892.78
2023-05-06T06:50:34.041Z,96887.28
2023-05-06T06:51:35.977Z,96882.25
2023-05-06T06:52:37.849Z,96881.22
2023-05-06T06:53:40.219Z,96879.16
2023-05-06T06:54:42.066Z,96884.16
2023-05-06T06:55:44.586Z,96877.88
2023-05-06T06:56:46.412Z,96880.81
2023-05-06T06:57:48.308Z,96874.25
2023-05-06T06:58:52.404Z,96877.44
2023-05-06T06:59:56.263Z,96870.09
2023-05-06T07:00:58.318Z,96875.69
2023-05-06T07:02:00.204Z,96875.19
2023-05-06T07:03:02.185Z,96876.31
2023-05-06T07:04:06.562Z,96870.56
2023-05-06T07:05:09.443Z,96872.97
2023-05-06T07:06:11.540Z,96876.75
2023-05-06T07:07:13.519Z,96862.84
2023-05-06T07:08:17.413Z,96873.19
2023-05-06T07:09:19.320Z,96870.88
2023-05-06T07:10:21.462Z,96869.81
2023-05-06T07:11:23.321Z,96875.66
2023-05-06T07:12:27.003Z,96874.38
2023-05-06T07:13:28.878Z,96870.22
2023-05-06T07:14:30.698Z,96869.97
2023-05-06T07:15:32.576Z,96868.94
2023-05-06T07:16:34.478Z,96863.66
2023-05-06T07:17:36.407Z,96871.81
2023-05-06T07:18:38.381Z,96856.47
2023-05-06T07:19:40.272Z,96873.09
2023-05-06T07:20:42.304Z,96866.47
2023-05-06T07:21:44.300Z,96875.19
2023-05-06T07:22:46.224Z,96871.75
2023-05-06T07:23:48.137Z,96867.81
2023-05-06T07:24:50.050Z,96877.06
2023-05-06T07:25:51.866Z,96875.25
2023-05-06T07:26:53.805Z,96867.63
2023-05-06T07:27:55.607Z,96875.84
2023-05-06T07:28:57.553Z,96864.84
2023-05-06T07:29:59.424Z,96867.47
2023-05-06T07:31:01.396Z,96873.28
2023-05-06T07:32:03.855Z,96869.84
2023-05-06T07:33:05.903Z,96868.06
2023-05-06T07:34:08.128Z,96869.50
2023-05-06T07:35:10.276Z,96868.75
2023-05-06T07:36:12.427Z,96874.09
2023-05-06T07:37:14.280Z,96868.06
2023-05-06T07:38:16.100Z,96873.91
2023-05-06T07:39:18.041Z,96869.41
2023-05-06T07:40:19.911Z,96865.22
2023-05-06T07:41:21.757Z,96872.16
2023-05-06T07:42:23.535Z,96872.72
2023-05-06T07:43:25.398Z,96873.81
2023-05-06T07:44:27.454Z,96871.72
2023-05-06T07:45:29.451Z,96871.47
2023-05-06T07:46:31.450Z,96879.16
2023-05-06T07:47:33.490Z,96876.56
2023-05-06T07:48:35.345Z,96871.38
2023-05-06T07:49:37.735Z,96868.78
2023-05-06T07:50:39.741Z,96873.56
2023-05-06T07:51:42.584Z,96864.88
2023-05-06T07:52:44.419Z,96866.78
2023-05-06T07:53:46.351Z,96867.38
2023-05-06T07:54:48.182Z,96871.63
2023-05-06T07:55:50.048Z,96868.53
2023-05-06T07:56:51.944Z,96865.94
2023-05-06T07:57:53.792Z,96864.41
2023-05-06T07:58:55.580Z,96868.66
2023-05-06T07:59:58.758Z,96868.72
2023-05-06T08:01:00.812Z,96862.91
2023-05-06T08:02:02.972Z,96870.34
2023-05-06T08:03:04.909Z,96865.34
2023-05-06T08:04:07.750Z,96867.50
2023-05-06T08:05:10.089Z,96868.81
2023-05-06T08:06:12.323Z,96874.91
2023-05-06T08:07:15.105Z,96875.19
2023-05-06T08:08:17.197Z,96873.63
2023-05-06T08:09:23.061Z,96862.31
2023-05-06T08:10:25.428Z,96855.41
2023-05-06T08:11:27.361Z,96864.38
2023-05-06T08:12:29.186Z,96861.75
2023-05-06T08:13:31.810Z,96868.38
2023-05-06T08:14:33.649Z,96867.88
2023-05-06T08:15:35.750Z,96867.41
2023-05-06T08:16:37.752Z,96870.66
2023-05-06T08:17:39.722Z,96870.66
2023-05-06T08:18:41.654Z,96868.06
2023-05-06T08:19:43.501Z,96875.75
2023-05-06T08:20:45.649Z,96866.00
2023-05-06T08:21:48.693Z,96868.69
2023-05-06T08:22:50.594Z,96872.13
2023-05-06T08:23:53.288Z,96872.13
2023-05-06T08:24:55.418Z,96863.13
2023-05-06T08:25:57.408Z,96871.09
2023-05-06T08:26:59.298Z,96871.13
2023-05-06T08:28:01.173Z,96868.22
2023-05-06T08:29:03.729Z,96873.84
2023-05-06T08:30:05.911Z,96874.09
2023-05-06T08:31:07.820Z,96880.97
2023-05-06T08:32:09.837Z,96877.03
2023-05-06T08:33:11.858Z,96876.03
2023-05-06T08:34:13.724Z,96885.88
2023-05-06T08:35:15.667Z,96876.88
2023-05-06T08:36:17.493Z,96889.06
2023-05-06T08:37:19.384Z,96880.88
2023-05-06T08:38:21.365Z,96873.72
2023-05-06T08:39:23.244Z,96871.06
2023-05-06T08:40:26.720Z,96883.25
2023-05-06T08:41:29.477Z,96872.91
2023-05-06T08:42:33.214Z,96883.00
2023-05-06T08:43:41.255Z,96867.34
2023-05-06T08:44:43.833Z,96867.38
2023-05-06T08:45:45.857Z,96868.44
2023-05-06T08:46:48.070Z,96866.84
2023-05-06T08:47:50.260Z,96864.47
2023-05-06T08:48:53.179Z,96862.09
2023-05-06T08:49:55.196Z,96858.38
2023-05-06T08:50:57.976Z,96860.22
2023-05-06T08:51:59.958Z,96862.59
2023-05-06T08:53:02.592Z,96860.47
2023-05-06T08:54:05.110Z,96859.66
2023-05-06T08:55:07.827Z,96853.28
2023-05-06T08:56:12.676Z,96862.84
2023-05-06T08:57:14.663Z,96859.97
2023-05-06T08:58:17.216Z,96865.81
2023-05-06T08:59:26.080Z,96859.69
2023-05-06T09:00:27.946Z,96861.25
2023-05-06T09:01:29.872Z,96861.81
2023-05-06T09:02:31.937Z,96855.69
2023-05-06T09:03:34.207Z,96851.69
2023-05-06T09:04:37.331Z,96858.84
2023-05-06T09:05:39.194Z,96863.63
2023-05-06T09:06:42.119Z,96860.16
2023-05-06T09:07:43.937Z,96859.63
2023-05-06T09:08:45.917Z,96856.97
2023-05-06T09:09:48.461Z,96864.13
2023-05-06T09:10:50.328Z,96857.78
2023-05-06T09:11:54.441Z,96855.13
2023-05-06T09:12:57.173Z,96857.78
2023-05-06T09:14:08.162Z,96852.22
2023-05-06T09:15:11.063Z,96855.34
2023-05-06T09:16:26.819Z,96860.09
2023-05-06T09:17:32.046Z,96861.94
2023-05-06T09:18:36.588Z,96862.41
2023-05-06T09:19:38.558Z,96863.44
2023-05-06T09:20:45.230Z,96865.56
2023-05-06T09:21:48.968Z,96860.22
2023-05-06T09:22:51.070Z,96858.66
2023-05-06T09:23:53.031Z,96856.00
2023-05-06T09:24:58.018Z,96865.59
2023-05-06T09:26:00.014Z,96853.69
2023-05-06T09:27:02.055Z,96851.84
2023-05-06T09:28:04.827Z,96855.56
2023-05-06T09:29:07.149Z,96853.16
2023-05-06T09:30:12.505Z,96857.41
2023-05-06T09:31:15.262Z,96856.63
2023-05-06T09:32:17.289Z,96861.69
2023-05-06T09:33:19.147Z,96865.16
2023-05-06T09:34:22.241Z,96871.00
2023-05-06T09:35:35.651Z,96863.31
2023-05-06T09:36:38.064Z,96865.72
2023-05-06T09:37:39.930Z,96866.78
2023-05-06T09:38:41.805Z,96870.25
2023-05-06T09:39:43.662Z,96875.06
2023-05-06T09:40:45.538Z,96877.44
2023-05-06T09:41:47.489Z,96876.13
2023-05-06T09:42:51.781Z,96880.63
2023-05-06T09:43:54.402Z,96879.56
2023-05-06T09:44:58.631Z,96876.66
2023-05-06T09:46:02.758Z,96867.91
2023-05-06T09:47:04.647Z,96869.47
2023-05-06T09:48:08.570Z,96869.22
2023-05-06T09:49:10.582Z,96866.25
2023-05-06T09:50:13.804Z,96868.09
2023-05-06T09:51:16.332Z,96860.88
2023-05-06T09:52:19.974Z,96857.91
2023-05-06T09:53:22.497Z,96864.22
2023-05-06T09:54:25.085Z,96855.97
2023-05-06T09:55:27.704Z,96857.22
2023-05-06T09:56:31.403Z,96854.78
2023-05-06T09:57:33.540Z,96853.88
2023-05-06T09:58:35.841Z,96853.09
2023-05-06T09:59:38.464Z,96855.03
2023-05-06T10:00:40.411Z,96861.44
2023-05-06T10:01:42.494Z,96858.81
2023-05-06T10:02:45.196Z,96855.38
2023-05-06T10:03:48.388Z,96862.81
2023-05-06T10:04:50.578Z,96858.34
2023-05-06T10:05:57.588Z,96864.75
2023-05-06T10:07:01.218Z,96860.81
2023-05-06T10:08:04.922Z,96860.81
2023-05-06T10:09:07.936Z,96866.09
2023-05-06T10:10:12.019Z,96860.16
2023-05-06T10:11:14.920Z,96860.63
2023-05-06T10:12:16.918Z,96853.88
2023-05-06T10:13:20.360Z,96862.03
2023-05-06T10:14:22.285Z,96853.44
2023-05-06T10:15:26.367Z,96850.47
2023-05-06T10:16:28.606Z,96848.47
2023-05-06T10:17:32.042Z,96854.41
2023-05-06T10:18:35.543Z,96852.13
2023-05-06T10:19:39.800Z,96854.00
2023-05-06T10:20:42.837Z,96843.34
2023-05-06T10:21:48.177Z,96844.88
2023-05-06T10:23:02.205Z,96843.41
2023-05-06T10:24:09.381Z,96845.59
2023-05-06T10:25:19.541Z,96843.53
2023-05-06T10:26:22.534Z,96846.34
2023-05-06T10:27:27.194Z,96840.44
2023-05-06T10:28:31.023Z,96847.81
2023-05-06T10:29:36.388Z,96843.25
2023-05-06T10:30:39.414Z,96834.72
2023-05-06T10:31:47.250Z,96841.81
2023-05-06T10:32:51.570Z,96836.97
2023-05-06T10:33:54.781Z,96838.22
2023-05-06T10:34:58.906Z,96826.66
2023-05-06T10:36:11.948Z,96824.78
2023-05-06T10:37:14.959Z,96827.44
2023-05-06T10:38:16.800Z,96828.19
2023-05-06T10:39:19.137Z,96818.06
2023-05-06T10:40:21.184Z,96825.66
2023-05-06T10:41:24.325Z,96820.19
2023-05-06T10:42:33.847Z,96829.53
2023-05-06T10:43:39.321Z,96825.28
2023-05-06T10:45:15.583Z,96827.06
2023-05-06T10:46:18.089Z,96820.69
2023-05-06T10:47:20.461Z,96825.44
2023-05-06T10:48:22.387Z,96830.63
2023-05-06T10:49:24.265Z,96827.91
2023-05-06T10:50:27.762Z,96828.53
2023-05-06T10:51:29.786Z,96829.41
2023-05-06T10:52:44.649Z,96823.56
2023-05-06T10:54:04.827Z,96829.25
2023-05-06T10:55:24.672Z,96825.25
2023-05-06T10:56:27.177Z,96822.38
2023-05-06T10:57:40.693Z,96820.00
2023-05-06T10:58:46.650Z,96818.69
2023-05-06T10:59:49.085Z,96818.69
2023-05-06T11:00:55.853Z,96816.31
2023-05-06T11:02:05.058Z,96814.50
2023-05-06T11:03:08.653Z,96814.03
2023-05-06T11:04:14.154Z,96815.13
2023-05-06T11:05:16.190Z,96812.28
2023-05-06T11:06:37.166Z,96814.16
2023-05-06T11:07:38.978Z,96817.09
2023-05-06T11:08:41.064Z,96818.97
2023-05-06T11:09:59.621Z,96808.88
2023-05-06T11:11:02.131Z,96812.03
2023-05-06T11:12:05.174Z,96806.72
2023-05-06T11:13:20.864Z,96813.38
2023-05-06T11:14:27.291Z,96812.25
2023-05-06T11:15:41.764Z,96811.81
2023-05-06T11:16:47.229Z,96815.03
2023-05-06T11:17:49.128Z,96810.25
2023-05-06T11:18:51.612Z,96809.75
2023-05-06T11:20:13.443Z,96804.31
2023-05-06T11:21:18.250Z,96809.66
2023-05-06T11:22:39.131Z,96803.91
2023-05-06T11:23:47.225Z,96802.44
2023-05-06T11:24:49.043Z,96802.81
2023-05-06T11:25:51.757Z,96805.75
2023-05-06T11:26:54.301Z,96809.69
2023-05-06T11:27:56.333Z,96811.47
2023-05-06T11:29:02.196Z,96810.81
2023-05-06T11:30:04.804Z,96808.03
2023-05-06T11:31:06.704Z,96816.75
2023-05-06T11:32:22.140Z,96807.34
2023-05-06T11:33:25.003Z,96820.00
2023-05-06T11:34:30.972Z,96819.00
2023-05-06T11:35:38.731Z,96827.34
2023-05-06T11:36:47.718Z,96817.88
2023-05-06T11:37:52.414Z,96821.72
2023-05-06T11:38:54.842Z,96827.88
2023-05-06T11:39:56.769Z,96827.91
2023-05-06T11:40:58.700Z,96831.38
2023-05-06T11:42:03.285Z,96826.84
2023-05-06T11:43:14.876Z,96826.78
2023-05-06T11:44:26.971Z,96818.38
2023-05-06T11:45:40.147Z,96825.84
2023-05-06T11:46:44.166Z,96822.13
2023-05-06T11:47:46.172Z,96813.63
2023-05-06T11:48:48.067Z,96817.59
2023-05-06T11:49:56.365Z,96810.47
2023-05-06T11:50:58.250Z,96812.25
2023-05-06T11:52:00.158Z,96815.75
2023-05-06T11:53:02.601Z,96812.19
2023-05-06T11:54:10.503Z,96810.41
2023-05-06T11:55:12.456Z,96807.09
2023-05-06T11:56:14.733Z,96812.91
2023-05-06T11:57:16.838Z,96813.53
2023-05-06T11:58:26.737Z,96808.78
2023-05-06T11:59:36.053Z,96817.19
2023-05-06T12:00:37.869Z,96815.03
2023-05-06T12:01:43.763Z,96812.31
2023-05-06T12:02:45.822Z,96804.78
2023-05-06T12:03:47.997Z,96802.75
2023-05-06T12:04:50.485Z,96805.00
2023-05-06T12:05:52.874Z,96812.00
2023-05-06T12:06:56.082Z,96809.66
2023-05-06T12:07:58.097Z,96805.72
2023-05-06T12:09:00.017Z,96808.66
2023-05-06T12:10:04.441Z,96809.19
2023-05-06T12:11:07.675Z,96798.34
2023-05-06T12:12:10.720Z,96802.19
2023-05-06T12:13:12.928Z,96800.03
2023-05-06T12:14:15.276Z,96798.47
2023-05-06T12:15:17.212Z,96799.81
2023-05-06T12:16:19.229Z,96795.34
2023-05-06T12:17:21.563Z,96803.38
2023-05-06T12:18:24.306Z,96803.22
2023-05-06T12:19:26.878Z,96804.56
2023-05-06T12:20:29.020Z,96804.34
2023-05-06T12:21:31.304Z,96804.19